sensor_id;sensor_type;location;lat;lon;timestamp;pressure;altitude;pressure_sealevel;temperature;humidity
66945;BME280;53853;51.982;5.928;2024-03-02T00:00:07;99814.59;;;9.81;66.72
66945;BME280;53853;51.982;5.928;2024-03-02T00:02:40;99809.28;;;9.81;67.49
66945;BME280;53853;51.982;5.928;2024-03-02T00:05:12;99806.44;;;9.82;67.24
66945;BME280;53853;51.982;5.928;2024-03-02T00:07:43;99807.09;;;9.84;67.25
66945;BME280;53853;51.982;5.928;2024-03-02T00:10:19;99804.44;;;9.84;65.22
66945;BME280;53853;51.982;5.928;2024-03-02T00:12:50;99809.59;;;9.86;65.56
66945;BME280;53853;51.982;5.928;2024-03-02T00:15:40;99808.59;;;9.87;66.09
66945;BME280;53853;51.982;5.928;2024-03-02T00:18:12;99810.25;;;9.88;67.24
66945;BME280;53853;51.982;5.928;2024-03-02T00:20:42;99800.63;;;9.87;67.34
66945;BME280;53853;51.982;5.928;2024-03-02T00:23:16;99808.59;;;9.87;66.91
66945;BME280;53853;51.982;5.928;2024-03-02T00:25:50;99809.59;;;9.86;67.07
66945;BME280;53853;51.982;5.928;2024-03-02T00:28:21;99795.81;;;9.82;66.12
66945;BME280;53853;51.982;5.928;2024-03-02T00:31:02;99804.59;;;9.83;66.31
66945;BME280;53853;51.982;5.928;2024-03-02T00:33:33;99800.09;;;9.83;66.37
66945;BME280;53853;51.982;5.928;2024-03-02T00:36:04;99799.75;;;9.86;67.39
66945;BME280;53853;51.982;5.928;2024-03-02T00:38:40;99788.78;;;9.89;67.63
66945;BME280;53853;51.982;5.928;2024-03-02T00:41:18;99789.47;;;9.91;67.75
66945;BME280;53853;51.982;5.928;2024-03-02T00:43:59;99794.63;;;9.93;67.52
66945;BME280;53853;51.982;5.928;2024-03-02T00:46:34;99798.56;;;9.97;67.47
66945;BME280;53853;51.982;5.928;2024-03-02T00:49:05;99799.06;;;10.01;67.99
66945;BME280;53853;51.982;5.928;2024-03-02T00:51:35;99810.22;;;10.04;68.53
66945;BME280;53853;51.982;5.928;2024-03-02T00:54:07;99806.34;;;10.07;68.83
66945;BME280;53853;51.982;5.928;2024-03-02T00:56:42;99802.53;;;10.09;67.99
66945;BME280;53853;51.982;5.928;2024-03-02T00:59:12;99814.00;;;10.10;67.51
66945;BME280;53853;51.982;5.928;2024-03-02T01:01:42;99812.19;;;10.10;67.89
66945;BME280;53853;51.982;5.928;2024-03-02T01:04:12;99819.81;;;10.13;66.66
66945;BME280;53853;51.982;5.928;2024-03-02T01:06:42;99826.63;;;10.16;66.70
66945;BME280;53853;51.982;5.928;2024-03-02T01:09:12;99824.78;;;10.16;66.50
66945;BME280;53853;51.982;5.928;2024-03-02T01:11:46;99830.09;;;10.16;66.57
66945;BME280;53853;51.982;5.928;2024-03-02T01:14:16;99825.81;;;10.15;65.68
66945;BME280;53853;51.982;5.928;2024-03-02T01:16:46;99847.09;;;10.15;65.87
66945;BME280;53853;51.982;5.928;2024-03-02T01:19:16;99848.75;;;10.16;65.52
66945;BME280;53853;51.982;5.928;2024-03-02T01:21:46;99856.72;;;10.16;66.29
66945;BME280;53853;51.982;5.928;2024-03-02T01:24:17;99872.53;;;10.18;64.12
66945;BME280;53853;51.982;5.928;2024-03-02T01:26:49;99882.69;;;10.14;62.88
66945;BME280;53853;51.982;5.928;2024-03-02T01:29:19;99887.53;;;10.11;64.52
66945;BME280;53853;51.982;5.928;2024-03-02T01:31:49;99895.53;;;10.11;64.41
66945;BME280;53853;51.982;5.928;2024-03-02T01:34:20;99883.03;;;10.11;63.49
66945;BME280;53853;51.982;5.928;2024-03-02T01:36:50;99880.38;;;10.11;63.66
66945;BME280;53853;51.982;5.928;2024-03-02T01:39:20;99891.88;;;10.12;64.46
66945;BME280;53853;51.982;5.928;2024-03-02T01:41:52;99886.38;;;10.13;65.19
66945;BME280;53853;51.982;5.928;2024-03-02T01:44:22;99894.38;;;10.13;65.40
66945;BME280;53853;51.982;5.928;2024-03-02T01:46:52;99896.00;;;10.14;64.52
66945;BME280;53853;51.982;5.928;2024-03-02T01:49:22;99893.34;;;10.14;64.53
66945;BME280;53853;51.982;5.928;2024-03-02T01:51:52;99887.38;;;10.12;65.65
66945;BME280;53853;51.982;5.928;2024-03-02T01:54:22;99881.88;;;10.14;66.86
66945;BME280;53853;51.982;5.928;2024-03-02T01:56:54;99865.91;;;10.14;67.39
66945;BME280;53853;51.982;5.928;2024-03-02T01:59:24;99871.41;;;10.12;67.65
66945;BME280;53853;51.982;5.928;2024-03-02T02:01:54;99867.75;;;10.13;68.18
66945;BME280;53853;51.982;5.928;2024-03-02T02:04:24;99861.41;;;10.14;68.64
66945;BME280;53853;51.982;5.928;2024-03-02T02:06:54;99862.91;;;10.17;69.38
66945;BME280;53853;51.982;5.928;2024-03-02T02:09:24;99852.09;;;10.19;69.87
66945;BME280;53853;51.982;5.928;2024-03-02T02:11:57;99845.91;;;10.18;70.53
66945;BME280;53853;51.982;5.928;2024-03-02T02:14:27;99853.06;;;10.18;70.59
66945;BME280;53853;51.982;5.928;2024-03-02T02:16:56;99851.41;;;10.16;70.65
66945;BME280;53853;51.982;5.928;2024-03-02T02:19:26;99849.13;;;10.13;70.55
66945;BME280;53853;51.982;5.928;2024-03-02T02:21:59;99847.09;;;10.15;71.25
66945;BME280;53853;51.982;5.928;2024-03-02T02:24:29;99849.75;;;10.15;71.34
66945;BME280;53853;51.982;5.928;2024-03-02T02:26:58;99849.75;;;10.15;71.58
66945;BME280;53853;51.982;5.928;2024-03-02T02:29:28;99856.25;;;10.13;71.65
66945;BME280;53853;51.982;5.928;2024-03-02T02:31:58;99851.09;;;10.11;71.51
66945;BME280;53853;51.982;5.928;2024-03-02T02:34:28;99852.94;;;10.11;71.57
66945;BME280;53853;51.982;5.928;2024-03-02T02:37:01;99844.13;;;10.10;71.77
66945;BME280;53853;51.982;5.928;2024-03-02T02:39:31;99848.25;;;10.13;72.43
66945;BME280;53853;51.982;5.928;2024-03-02T02:42:01;99841.13;;;10.13;72.61
66945;BME280;53853;51.982;5.928;2024-03-02T02:44:31;99844.78;;;10.12;71.97
66945;BME280;53853;51.982;5.928;2024-03-02T02:47:01;99851.09;;;10.11;71.62
66945;BME280;53853;51.982;5.928;2024-03-02T02:49:31;99850.09;;;10.12;72.49
66945;BME280;53853;51.982;5.928;2024-03-02T02:52:04;99844.94;;;10.11;72.09
66945;BME280;53853;51.982;5.928;2024-03-02T02:54:34;99843.09;;;10.11;71.75
66945;BME280;53853;51.982;5.928;2024-03-02T02:57:04;99843.97;;;10.12;72.83
66945;BME280;53853;51.982;5.928;2024-03-02T02:59:35;99852.13;;;10.10;72.06
66945;BME280;53853;51.982;5.928;2024-03-02T03:02:05;99853.09;;;10.09;72.97
66945;BME280;53853;51.982;5.928;2024-03-02T03:04:34;99841.63;;;10.09;72.87
66945;BME280;53853;51.982;5.928;2024-03-02T03:07:07;99838.97;;;10.09;73.04
66945;BME280;53853;51.982;5.928;2024-03-02T03:09:38;99848.78;;;10.08;73.26
66945;BME280;53853;51.982;5.928;2024-03-02T03:12:08;99840.94;;;10.07;73.08
66945;BME280;53853;51.982;5.928;2024-03-02T03:14:40;99842.16;;;10.04;72.73
66945;BME280;53853;51.982;5.928;2024-03-02T03:17:09;99854.13;;;10.00;71.84
66945;BME280;53853;51.982;5.928;2024-03-02T03:19:39;99848.97;;;9.98;71.61
66945;BME280;53853;51.982;5.928;2024-03-02T03:22:12;99839.31;;;9.97;70.17
66945;BME280;53853;51.982;5.928;2024-03-02T03:24:41;99854.16;;;9.92;69.45
66945;BME280;53853;51.982;5.928;2024-03-02T03:27:11;99857.16;;;9.89;68.62
66945;BME280;53853;51.982;5.928;2024-03-02T03:29:41;99856.50;;;9.87;69.23
66945;BME280;53853;51.982;5.928;2024-03-02T03:32:11;99855.66;;;9.86;69.47
66945;BME280;53853;51.982;5.928;2024-03-02T03:34:41;99861.47;;;9.82;68.22
66945;BME280;53853;51.982;5.928;2024-03-02T03:37:13;99869.78;;;9.78;67.73
66945;BME280;53853;51.982;5.928;2024-03-02T03:39:43;99883.63;;;9.74;67.77
66945;BME280;53853;51.982;5.928;2024-03-02T03:42:13;99875.47;;;9.67;67.67
66945;BME280;53853;51.982;5.928;2024-03-02T03:44:43;99871.50;;;9.63;68.63
66945;BME280;53853;51.982;5.928;2024-03-02T03:47:12;99880.47;;;9.62;68.99
66945;BME280;53853;51.982;5.928;2024-03-02T03:49:42;99871.66;;;9.61;68.80
66945;BME280;53853;51.982;5.928;2024-03-02T03:52:15;99877.47;;;9.57;69.32
66945;BME280;53853;51.982;5.928;2024-03-02T03:54:45;99883.13;;;9.54;69.82
66945;BME280;53853;51.982;5.928;2024-03-02T03:57:14;99892.09;;;9.53;70.28
66945;BME280;53853;51.982;5.928;2024-03-02T03:59:44;99874.81;;;9.49;70.56
66945;BME280;53853;51.982;5.928;2024-03-02T04:02:14;99886.63;;;9.46;70.72
66945;BME280;53853;51.982;5.928;2024-03-02T04:04:44;99878.63;;;9.46;71.12
66945;BME280;53853;51.982;5.928;2024-03-02T04:07:16;99880.47;;;9.46;71.13
66945;BME280;53853;51.982;5.928;2024-03-02T04:09:46;99884.13;;;9.45;71.10
66945;BME280;53853;51.982;5.928;2024-03-02T04:12:16;99895.09;;;9.41;71.06
66945;BME280;53853;51.982;5.928;2024-03-02T04:14:46;99911.22;;;9.40;70.64
66945;BME280;53853;51.982;5.928;2024-03-02T04:17:15;99913.69;;;9.33;70.68
66945;BME280;53853;51.982;5.928;2024-03-02T04:19:45;99888.94;;;9.33;71.19
66945;BME280;53853;51.982;5.928;2024-03-02T04:22:18;99875.81;;;9.31;71.54
66945;BME280;53853;51.982;5.928;2024-03-02T04:24:47;99880.13;;;9.32;71.93
66945;BME280;53853;51.982;5.928;2024-03-02T04:27:17;99885.44;;;9.32;72.11
66945;BME280;53853;51.982;5.928;2024-03-02T04:29:47;99885.59;;;9.31;72.49
66945;BME280;53853;51.982;5.928;2024-03-02T04:32:17;99896.06;;;9.32;72.42
66945;BME280;53853;51.982;5.928;2024-03-02T04:34:47;99886.47;;;9.31;72.50
66945;BME280;53853;51.982;5.928;2024-03-02T04:37:19;99897.09;;;9.31;72.26
66945;BME280;53853;51.982;5.928;2024-03-02T04:39:49;99900.06;;;9.28;72.00
66945;BME280;53853;51.982;5.928;2024-03-02T04:42:19;99894.06;;;9.26;72.36
66945;BME280;53853;51.982;5.928;2024-03-02T04:44:49;99907.38;;;9.26;72.54
66945;BME280;53853;51.982;5.928;2024-03-02T04:47:19;99909.19;;;9.25;72.75
66945;BME280;53853;51.982;5.928;2024-03-02T04:49:49;99903.88;;;9.25;72.87
66945;BME280;53853;51.982;5.928;2024-03-02T04:52:21;99908.53;;;9.23;73.17
66945;BME280;53853;51.982;5.928;2024-03-02T04:54:51;99906.38;;;9.19;73.17
66945;BME280;53853;51.982;5.928;2024-03-02T04:57:37;99908.88;;;9.12;73.16
66945;BME280;53853;51.982;5.928;2024-03-02T05:00:10;99907.50;;;9.08;73.28
66945;BME280;53853;51.982;5.928;2024-03-02T05:02:40;99912.50;;;9.03;73.66
66945;BME280;53853;51.982;5.928;2024-03-02T05:05:10;99922.94;;;8.96;73.58
66945;BME280;53853;51.982;5.928;2024-03-02T05:07:44;99925.22;;;8.91;73.68
66945;BME280;53853;51.982;5.928;2024-03-02T05:10:14;99924.06;;;8.85;73.99
66945;BME280;53853;51.982;5.928;2024-03-02T05:12:44;99926.06;;;8.83;74.02
66945;BME280;53853;51.982;5.928;2024-03-02T05:15:23;99929.03;;;8.80;74.40
66945;BME280;53853;51.982;5.928;2024-03-02T05:17:53;99931.84;;;8.79;74.54
66945;BME280;53853;51.982;5.928;2024-03-02T05:20:23;99925.19;;;8.75;74.62
66945;BME280;53853;51.982;5.928;2024-03-02T05:22:56;99928.16;;;8.72;75.01
66945;BME280;53853;51.982;5.928;2024-03-02T05:25:26;99931.31;;;8.67;75.17
66945;BME280;53853;51.982;5.928;2024-03-02T05:27:55;99932.28;;;8.66;75.12
66945;BME280;53853;51.982;5.928;2024-03-02T05:30:25;99929.97;;;8.63;75.14
66945;BME280;53853;51.982;5.928;2024-03-02T05:32:55;99933.78;;;8.60;74.92
66945;BME280;53853;51.982;5.928;2024-03-02T05:35:25;99931.28;;;8.59;74.94
66945;BME280;53853;51.982;5.928;2024-03-02T05:37:57;99932.09;;;8.59;75.00
66945;BME280;53853;51.982;5.928;2024-03-02T05:40:27;99936.59;;;8.59;75.13
66945;BME280;53853;51.982;5.928;2024-03-02T05:42:57;99938.72;;;8.55;74.97
66945;BME280;53853;51.982;5.928;2024-03-02T05:45:27;99945.34;;;8.51;74.45
66945;BME280;53853;51.982;5.928;2024-03-02T05:47:57;99937.69;;;8.48;74.35
66945;BME280;53853;51.982;5.928;2024-03-02T05:50:27;99944.31;;;8.44;74.44
66945;BME280;53853;51.982;5.928;2024-03-02T05:52:59;99945.59;;;8.40;74.63
66945;BME280;53853;51.982;5.928;2024-03-02T05:55:29;99952.88;;;8.38;74.74
66945;BME280;53853;51.982;5.928;2024-03-02T05:57:59;99955.84;;;8.34;75.01
66945;BME280;53853;51.982;5.928;2024-03-02T06:00:44;99965.94;;;8.31;75.00
66945;BME280;53853;51.982;5.928;2024-03-02T06:03:14;99962.59;;;8.29;75.27
66945;BME280;53853;51.982;5.928;2024-03-02T06:05:43;99963.78;;;8.26;75.49
66945;BME280;53853;51.982;5.928;2024-03-02T06:08:18;99958.78;;;8.23;75.64
66945;BME280;53853;51.982;5.928;2024-03-02T06:10:48;99959.09;;;8.20;75.48
66945;BME280;53853;51.982;5.928;2024-03-02T06:13:18;99963.84;;;8.16;75.51
66945;BME280;53853;51.982;5.928;2024-03-02T06:15:48;99977.28;;;8.15;75.46
66945;BME280;53853;51.982;5.928;2024-03-02T06:18:18;99975.94;;;8.11;75.43
66945;BME280;53853;51.982;5.928;2024-03-02T06:20:48;99973.59;;;8.08;75.18
66945;BME280;53853;51.982;5.928;2024-03-02T06:23:20;99976.56;;;8.05;75.49
66945;BME280;53853;51.982;5.928;2024-03-02T06:25:50;99975.34;;;7.99;75.58
66945;BME280;53853;51.982;5.928;2024-03-02T06:28:20;99979.97;;;7.97;75.95
66945;BME280;53853;51.982;5.928;2024-03-02T06:30:50;99988.09;;;7.95;76.14
66945;BME280;53853;51.982;5.928;2024-03-02T06:33:19;99984.75;;;7.93;76.24
66945;BME280;53853;51.982;5.928;2024-03-02T06:35:49;99987.56;;;7.92;76.70
66945;BME280;53853;51.982;5.928;2024-03-02T06:38:22;99992.03;;;7.91;76.62
66945;BME280;53853;51.982;5.928;2024-03-02T06:40:51;99992.56;;;7.95;76.59
66945;BME280;53853;51.982;5.928;2024-03-02T06:43:22;99990.59;;;7.97;76.52
66945;BME280;53853;51.982;5.928;2024-03-02T06:45:52;99994.59;;;8.01;76.71
66945;BME280;53853;51.982;5.928;2024-03-02T06:48:22;100000.44;;;8.05;77.06
66945;BME280;53853;51.982;5.928;2024-03-02T06:50:52;99999.81;;;8.11;77.03
66945;BME280;53853;51.982;5.928;2024-03-02T06:53:25;100000.19;;;8.16;76.75
66945;BME280;53853;51.982;5.928;2024-03-02T06:55:55;100001.09;;;8.25;77.36
66945;BME280;53853;51.982;5.928;2024-03-02T06:58:25;99999.47;;;8.32;77.20
66945;BME280;53853;51.982;5.928;2024-03-02T07:00:54;99999.50;;;8.40;77.38
66945;BME280;53853;51.982;5.928;2024-03-02T07:03:24;100001.72;;;8.45;76.91
66945;BME280;53853;51.982;5.928;2024-03-02T07:05:54;100002.09;;;8.50;77.51
66945;BME280;53853;51.982;5.928;2024-03-02T07:08:27;100006.94;;;8.55;77.57
66945;BME280;53853;51.982;5.928;2024-03-02T07:10:56;100007.63;;;8.57;77.22
66945;BME280;53853;51.982;5.928;2024-03-02T07:13:27;100015.75;;;8.55;76.53
66945;BME280;53853;51.982;5.928;2024-03-02T07:15:57;100014.72;;;8.56;76.49
66945;BME280;53853;51.982;5.928;2024-03-02T07:18:51;100011.09;;;8.57;75.85
66945;BME280;53853;51.982;5.928;2024-03-02T07:21:22;100020.28;;;8.63;76.57
66945;BME280;53853;51.982;5.928;2024-03-02T07:23:54;100022.78;;;8.64;77.04
66945;BME280;53853;51.982;5.928;2024-03-02T07:26:24;100030.56;;;8.66;77.22
66945;BME280;53853;51.982;5.928;2024-03-02T07:28:54;100032.06;;;8.68;77.14
66945;BME280;53853;51.982;5.928;2024-03-02T07:31:24;100035.25;;;8.72;77.58
66945;BME280;53853;51.982;5.928;2024-03-02T07:33:53;100036.75;;;8.75;77.92
66945;BME280;53853;51.982;5.928;2024-03-02T07:36:23;100041.09;;;8.76;78.11
66945;BME280;53853;51.982;5.928;2024-03-02T07:38:56;100040.09;;;8.77;77.65
66945;BME280;53853;51.982;5.928;2024-03-02T07:41:26;100044.25;;;8.79;77.07
66945;BME280;53853;51.982;5.928;2024-03-02T07:43:58;100051.75;;;8.84;77.37
66945;BME280;53853;51.982;5.928;2024-03-02T07:46:28;100042.63;;;8.86;76.98
66945;BME280;53853;51.982;5.928;2024-03-02T07:48:58;100042.00;;;8.93;77.09
66945;BME280;53853;51.982;5.928;2024-03-02T07:51:28;100045.03;;;8.98;77.79
66945;BME280;53853;51.982;5.928;2024-03-02T07:54:01;100043.53;;;9.03;77.61
66945;BME280;53853;51.982;5.928;2024-03-02T07:56:31;100048.22;;;9.10;77.55
66945;BME280;53853;51.982;5.928;2024-03-02T07:59:01;100048.25;;;9.18;77.91
66945;BME280;53853;51.982;5.928;2024-03-02T08:01:32;100044.13;;;9.23;77.96
66945;BME280;53853;51.982;5.928;2024-03-02T08:04:03;100046.00;;;9.31;77.91
66945;BME280;53853;51.982;5.928;2024-03-02T08:06:33;100047.00;;;9.38;76.48
66945;BME280;53853;51.982;5.928;2024-03-02T08:09:05;100044.03;;;9.50;77.69
66945;BME280;53853;51.982;5.928;2024-03-02T08:11:39;100050.38;;;9.57;77.36
66945;BME280;53853;51.982;5.928;2024-03-02T08:14:09;100059.03;;;9.67;77.87
66945;BME280;53853;51.982;5.928;2024-03-02T08:16:39;100053.75;;;9.75;77.84
66945;BME280;53853;51.982;5.928;2024-03-02T08:19:09;100057.91;;;9.86;77.98
66945;BME280;53853;51.982;5.928;2024-03-02T08:21:39;100061.09;;;9.98;77.60
66945;BME280;53853;51.982;5.928;2024-03-02T08:24:12;100053.91;;;10.07;77.17
66945;BME280;53853;51.982;5.928;2024-03-02T08:26:41;100051.09;;;10.16;76.85
66945;BME280;53853;51.982;5.928;2024-03-02T08:29:11;100055.41;;;10.26;76.50
66945;BME280;53853;51.982;5.928;2024-03-02T08:31:41;100048.47;;;10.33;76.43
66945;BME280;53853;51.982;5.928;2024-03-02T08:34:11;100051.94;;;10.42;76.69
66945;BME280;53853;51.982;5.928;2024-03-02T08:36:41;100052.13;;;10.48;76.97
66945;BME280;53853;51.982;5.928;2024-03-02T08:39:13;100058.59;;;10.54;76.91
66945;BME280;53853;51.982;5.928;2024-03-02T08:41:46;100058.59;;;10.54;74.33
66945;BME280;53853;51.982;5.928;2024-03-02T08:44:17;100051.78;;;10.60;73.11
66945;BME280;53853;51.982;5.928;2024-03-02T08:46:47;100052.72;;;10.67;74.10
66945;BME280;53853;51.982;5.928;2024-03-02T08:49:17;100058.22;;;10.74;73.36
66945;BME280;53853;51.982;5.928;2024-03-02T08:51:47;100057.69;;;10.78;71.57
66945;BME280;53853;51.982;5.928;2024-03-02T08:54:24;100059.69;;;10.84;71.70
66945;BME280;53853;51.982;5.928;2024-03-02T08:56:54;100057.72;;;10.86;70.80
66945;BME280;53853;51.982;5.928;2024-03-02T08:59:24;100060.03;;;10.90;70.94
66945;BME280;53853;51.982;5.928;2024-03-02T09:01:54;100053.34;;;10.94;70.40
66945;BME280;53853;51.982;5.928;2024-03-02T09:04:24;100060.00;;;10.98;68.31
66945;BME280;53853;51.982;5.928;2024-03-02T09:06:54;100072.31;;;10.99;66.19
66945;BME280;53853;51.982;5.928;2024-03-02T09:09:27;100071.97;;;11.02;65.79
66945;BME280;53853;51.982;5.928;2024-03-02T09:11:58;100074.47;;;11.03;65.54
66945;BME280;53853;51.982;5.928;2024-03-02T09:14:28;100072.31;;;11.07;66.41
66945;BME280;53853;51.982;5.928;2024-03-02T09:16:58;100066.44;;;11.12;67.11
66945;BME280;53853;51.982;5.928;2024-03-02T09:19:28;100059.28;;;11.12;62.61
66945;BME280;53853;51.982;5.928;2024-03-02T09:21:58;100067.94;;;11.14;62.46
66945;BME280;53853;51.982;5.928;2024-03-02T09:24:32;100067.94;;;11.14;63.48
66945;BME280;53853;51.982;5.928;2024-03-02T09:27:02;100070.25;;;11.17;63.35
66945;BME280;53853;51.982;5.928;2024-03-02T09:29:32;100070.91;;;11.19;64.29
66945;BME280;53853;51.982;5.928;2024-03-02T09:32:03;100078.38;;;11.24;64.60
66945;BME280;53853;51.982;5.928;2024-03-02T09:34:33;100076.88;;;11.30;65.05
66945;BME280;53853;51.982;5.928;2024-03-02T09:37:03;100072.84;;;11.34;65.62
66945;BME280;53853;51.982;5.928;2024-03-02T09:39:36;100074.81;;;11.40;65.66
66945;BME280;53853;51.982;5.928;2024-03-02T09:42:06;100069.66;;;11.38;60.60
66945;BME280;53853;51.982;5.928;2024-03-02T09:44:36;100071.50;;;11.38;60.85
66945;BME280;53853;51.982;5.928;2024-03-02T09:47:07;100078.16;;;11.42;61.76
66945;BME280;53853;51.982;5.928;2024-03-02T09:49:37;100077.81;;;11.45;62.65
66945;BME280;53853;51.982;5.928;2024-03-02T09:52:07;100073.94;;;11.48;60.21
66945;BME280;53853;51.982;5.928;2024-03-02T09:54:40;100064.44;;;11.53;61.68
66945;BME280;53853;51.982;5.928;2024-03-02T09:57:10;100065.53;;;11.59;62.81
66945;BME280;53853;51.982;5.928;2024-03-02T09:59:40;100065.88;;;11.64;60.07
66945;BME280;53853;51.982;5.928;2024-03-02T10:02:10;100068.16;;;11.67;60.77
66945;BME280;53853;51.982;5.928;2024-03-02T10:04:40;100068.66;;;11.71;62.08
66945;BME280;53853;51.982;5.928;2024-03-02T10:07:13;100068.13;;;11.75;62.64
66945;BME280;53853;51.982;5.928;2024-03-02T10:09:46;100075.44;;;11.82;62.96
66945;BME280;53853;51.982;5.928;2024-03-02T10:12:19;100068.53;;;11.87;63.70
66945;BME280;53853;51.982;5.928;2024-03-02T10:14:49;100068.88;;;11.92;63.82
66945;BME280;53853;51.982;5.928;2024-03-02T10:17:19;100074.72;;;11.96;61.20
66945;BME280;53853;51.982;5.928;2024-03-02T10:19:49;100074.53;;;11.98;58.97
66945;BME280;53853;51.982;5.928;2024-03-02T10:22:19;100071.13;;;12.04;58.79
66945;BME280;53853;51.982;5.928;2024-03-02T10:24:56;100067.28;;;12.06;59.06
66945;BME280;53853;51.982;5.928;2024-03-02T10:27:27;100069.25;;;12.12;59.56
66945;BME280;53853;51.982;5.928;2024-03-02T10:29:58;100066.66;;;12.19;60.92
66945;BME280;53853;51.982;5.928;2024-03-02T10:32:27;100059.63;;;12.26;61.62
66945;BME280;53853;51.982;5.928;2024-03-02T10:34:58;100062.22;;;12.35;62.23
66945;BME280;53853;51.982;5.928;2024-03-02T10:37:29;100071.16;;;12.42;63.19
66945;BME280;53853;51.982;5.928;2024-03-02T10:40:05;100060.09;;;12.45;62.03
66945;BME280;53853;51.982;5.928;2024-03-02T10:42:36;100051.34;;;12.51;62.56
66945;BME280;53853;51.982;5.928;2024-03-02T10:45:09;100053.31;;;12.57;63.22
66945;BME280;53853;51.982;5.928;2024-03-02T10:47:39;100046.41;;;12.63;63.63
66945;BME280;53853;51.982;5.928;2024-03-02T10:50:10;100046.69;;;12.68;63.75
66945;BME280;53853;51.982;5.928;2024-03-02T10:52:40;100042.47;;;12.74;63.86
66945;BME280;53853;51.982;5.928;2024-03-02T10:55:12;100034.25;;;12.75;61.32
66945;BME280;53853;51.982;5.928;2024-03-02T10:57:50;100037.56;;;12.77;61.40
66945;BME280;53853;51.982;5.928;2024-03-02T11:00:21;100038.84;;;12.81;60.49
66945;BME280;53853;51.982;5.928;2024-03-02T11:02:58;100036.00;;;12.83;59.46
66945;BME280;53853;51.982;5.928;2024-03-02T11:05:33;100033.97;;;12.85;60.51
66945;BME280;53853;51.982;5.928;2024-03-02T11:08:08;100041.44;;;12.90;61.45
66945;BME280;53853;51.982;5.928;2024-03-02T11:10:48;100032.88;;;12.94;61.56
66945;BME280;53853;51.982;5.928;2024-03-02T11:13:24;100034.16;;;12.98;61.93
66945;BME280;53853;51.982;5.928;2024-03-02T11:16:04;100038.88;;;12.96;59.94
66945;BME280;53853;51.982;5.928;2024-03-02T11:18:39;100037.00;;;12.97;60.03
66945;BME280;53853;51.982;5.928;2024-03-02T11:21:12;100032.28;;;12.99;60.57
66945;BME280;53853;51.982;5.928;2024-03-02T11:23:42;100036.81;;;12.98;57.60
66945;BME280;53853;51.982;5.928;2024-03-02T11:26:21;100030.28;;;13.01;58.29
66945;BME280;53853;51.982;5.928;2024-03-02T11:28:52;100028.88;;;13.05;58.20
66945;BME280;53853;51.982;5.928;2024-03-02T11:31:23;100032.41;;;13.05;57.65
66945;BME280;53853;51.982;5.928;2024-03-02T11:34:29;100029.19;;;13.10;59.13
66945;BME280;53853;51.982;5.928;2024-03-02T11:37:00;100031.28;;;13.15;59.94
66945;BME280;53853;51.982;5.928;2024-03-02T11:39:32;100035.88;;;13.21;59.35
66945;BME280;53853;51.982;5.928;2024-03-02T11:42:09;100037.81;;;13.27;60.85
66945;BME280;53853;51.982;5.928;2024-03-02T11:44:44;100031.34;;;13.36;61.61
66945;BME280;53853;51.982;5.928;2024-03-02T11:47:16;100029.78;;;13.42;61.89
66945;BME280;53853;51.982;5.928;2024-03-02T11:49:50;100019.53;;;13.46;62.04
66945;BME280;53853;51.982;5.928;2024-03-02T11:52:23;100015.84;;;13.47;61.81
66945;BME280;53853;51.982;5.928;2024-03-02T11:54:54;100016.47;;;13.49;61.56
66945;BME280;53853;51.982;5.928;2024-03-02T11:57:27;100017.66;;;13.46;61.18
66945;BME280;53853;51.982;5.928;2024-03-02T11:59:58;100008.63;;;13.47;60.95
66945;BME280;53853;51.982;5.928;2024-03-02T12:02:32;100014.81;;;13.48;58.30
66945;BME280;53853;51.982;5.928;2024-03-02T12:05:04;100002.72;;;13.52;58.96
66945;BME280;53853;51.982;5.928;2024-03-02T12:07:35;100003.97;;;13.56;57.82
66945;BME280;53853;51.982;5.928;2024-03-02T12:10:06;99999.72;;;13.62;57.78
66945;BME280;53853;51.982;5.928;2024-03-02T12:12:39;99992.78;;;13.67;56.92
66945;BME280;53853;51.982;5.928;2024-03-02T12:15:09;99993.59;;;13.68;55.92
66945;BME280;53853;51.982;5.928;2024-03-02T12:17:39;99984.81;;;13.74;55.78
66945;BME280;53853;51.982;5.928;2024-03-02T12:20:12;99991.03;;;13.81;55.89
66945;BME280;53853;51.982;5.928;2024-03-02T12:22:42;99987.78;;;13.86;55.39
66945;BME280;53853;51.982;5.928;2024-03-02T12:25:13;99987.41;;;13.89;54.86
66945;BME280;53853;51.982;5.928;2024-03-02T12:27:46;99973.44;;;13.93;54.79
66945;BME280;53853;51.982;5.928;2024-03-02T12:30:17;99976.38;;;13.99;53.96
66945;BME280;53853;51.982;5.928;2024-03-02T12:32:47;99980.50;;;14.01;53.30
66945;BME280;53853;51.982;5.928;2024-03-02T12:35:18;99985.88;;;14.01;53.14
66945;BME280;53853;51.982;5.928;2024-03-02T12:37:51;99977.44;;;14.04;53.71
66945;BME280;53853;51.982;5.928;2024-03-02T12:40:22;99983.06;;;14.09;51.19
66945;BME280;53853;51.982;5.928;2024-03-02T12:42:54;99982.47;;;14.14;53.26
66945;BME280;53853;51.982;5.928;2024-03-02T12:45:24;99979.59;;;14.16;53.72
66945;BME280;53853;51.982;5.928;2024-03-02T12:47:54;99977.16;;;14.21;54.43
66945;BME280;53853;51.982;5.928;2024-03-02T12:50:24;99973.06;;;14.25;54.87
66945;BME280;53853;51.982;5.928;2024-03-02T12:52:55;99965.28;;;14.30;55.70
66945;BME280;53853;51.982;5.928;2024-03-02T12:55:26;99958.13;;;14.37;57.11
66945;BME280;53853;51.982;5.928;2024-03-02T12:57:58;99951.56;;;14.46;57.25
66945;BME280;53853;51.982;5.928;2024-03-02T13:00:29;99956.78;;;14.55;56.32
66945;BME280;53853;51.982;5.928;2024-03-02T13:03:02;99954.97;;;14.62;50.50
66945;BME280;53853;51.982;5.928;2024-03-02T13:05:32;99951.31;;;14.70;51.53
66945;BME280;53853;51.982;5.928;2024-03-02T13:08:03;99943.63;;;14.60;51.83
66945;BME280;53853;51.982;5.928;2024-03-02T13:10:34;99949.53;;;14.55;52.95
66945;BME280;53853;51.982;5.928;2024-03-02T13:13:06;99944.38;;;14.54;54.32
66945;BME280;53853;51.982;5.928;2024-03-02T13:15:36;99943.78;;;14.58;55.19
66945;BME280;53853;51.982;5.928;2024-03-02T13:18:08;99944.25;;;14.62;55.40
66945;BME280;53853;51.982;5.928;2024-03-02T13:20:38;99952.50;;;14.67;55.20